Latest Coastal Weather Observations for Strahan

IDT60701

Issued at 8:12 am EST Friday 19 August 2022 (issued every 10 minutes, with the page automatically refreshed every 10 minutes)

About coastal observations | Map of coastal stations | Coastal observations for TAS | Marine services | Other Formats
Station Details ID: 097072 Name: STRAHAN AERODROME Lat: -42.16 Lon: 145.29 Height: 21.0 m
Data from the previous 72 hours. | See also: Recent months at Strahan
Date/Time
EST
Wind Sea
Height
m
Swell Vis
km
Cloud Weather Temp
°C
Press
MSL
hPa
Rain since
9am
mm
Dir  Spd
kts
Gust
kts
Height
m
Period
s
Dir
19/08:00am NW 13 19 - - - - 10 Partly cloudy - 9.6 1007.2 24.8
19/07:30am NW 13 18 - - - - 10 Partly cloudy - 8.7 1007.0 24.8
19/07:00am WNW 13 18 - - - - 10 Partly cloudy - 8.7 1006.8 24.8
19/06:30am W 10 16 - - - - 8 Partly cloudy - 7.8 1006.7 24.8
19/06:00am W 9 13 - - - - 10 Cloudy Rain 8.3 1006.5 24.0
19/05:30am WSW 12 23 - - - - 10 Partly cloudy - 8.1 1006.3 24.0
19/05:00am WNW 11 15 - - - - 10 Partly cloudy - 8.5 1006.2 23.6
19/04:30am W 13 19 - - - - 10 Partly cloudy - 8.3 1005.9 23.6
19/04:17am W 15 26 - - - - 10 Partly cloudy - 7.9 1005.8 23.6
19/04:00am W 13 19 - - - - 10 Partly cloudy - 7.9 1005.4 23.4
19/03:38am W 15 29 - - - - 10 Partly cloudy - 8.6 1005.3 23.0
19/03:30am WNW 13 19 - - - - 10 Partly cloudy - 9.5 1005.1 22.8
19/03:00am W 15 20 - - - - 10 Cloudy - 9.3 1005.0 22.8
19/02:30am WNW 15 25 - - - - 10 Partly cloudy - 9.7 1004.7 22.8
19/02:29am WNW 15 25 - - - - 10 Partly cloudy - 9.7 1004.7 22.8
19/02:00am WNW 14 24 - - - - 10 Partly cloudy - 9.5 1004.3 22.8
19/01:30am WNW 11 20 - - - - 10 Partly cloudy - 8.5 1004.1 22.8
19/01:12am WNW 12 20 - - - - 7 Partly cloudy - 8.8 1003.9 22.6
19/01:00am WNW 13 20 - - - - 5 Partly cloudy - 8.5 1003.9 22.0
19/12:59am WNW 14 20 - - - - 5 Partly cloudy - 8.6 1003.9 22.0
19/12:30am WNW 13 18 - - - - 10 Partly cloudy - 9.7 1003.9 21.6
19/12:00am WNW 11 19 - - - - 10 Partly cloudy - 9.3 1003.6 21.6
 
Date/Time
EST
Wind Sea
Height
m
Swell Vis
km
Cloud Weather Temp
°C
Press
MSL
hPa
Rain since
9am
mm
Dir  Spd
kts
Gust
kts
Height
m
Period
s
Dir
18/11:30pm WNW 11 15 - - - - 10 - - 8.8 1003.5 21.6
18/11:00pm W 20 32 - - - - 8 Partly cloudy - 8.3 1003.6 21.6
18/10:57pm W 21 32 - - - - 10 Partly cloudy - 8.0 1003.6 21.6
18/10:55pm WNW 20 32 - - - - 10 Partly cloudy - 8.0 1003.6 21.6
18/10:50pm WNW 15 25 - - - - 10 Partly cloudy - 10.0 1003.4 21.4
18/10:30pm WNW 14 21 - - - - 10 Partly cloudy - 10.0 1003.4 21.4
18/10:00pm WNW 13 19 - - - - 10 Partly cloudy - 9.5 1003.1 21.4
18/09:30pm WNW 15 32 - - - - 6 Partly cloudy - 8.8 1003.2 21.4
18/09:24pm NW 15 32 - - - - 8 Partly cloudy - 9.1 1003.3 21.4
18/09:23pm NW 14 32 - - - - 10 Partly cloudy - 9.3 1003.2 20.8
18/09:00pm NW 15 21 - - - - 10 Cloudy - 10.1 1002.6 20.4
18/08:30pm NW 14 21 - - - - 10 Partly cloudy - 9.5 1002.1 20.4
18/08:00pm NW 11 18 - - - - 10 Partly cloudy - 9.7 1001.9 20.4
18/07:30pm NW 17 23 - - - - - Partly cloudy - 8.9 1001.9 20.4
18/07:28pm NW 18 23 - - - - - Partly cloudy - 8.8 1001.9 20.4
18/07:18pm NW 17 25 - - - - 8 Partly cloudy - 8.3 1001.8 20.4
18/07:00pm WNW 12 17 - - - - 5 Partly cloudy - 9.2 1001.5 18.6
18/06:30pm NW 13 16 - - - - 10 Partly cloudy - 9.9 1000.9 17.6
18/06:00pm WNW 11 16 - - - - 10 Cloudy Recent precip. 10.2 1000.8 17.6
18/05:30pm WNW 12 18 - - - - 10 Partly cloudy - 9.7 1000.4 17.6
18/05:02pm WNW 12 18 - - - - 10 Partly cloudy - 9.6 1000.0 17.6
18/05:00pm WNW 12 18 - - - - 10 Partly cloudy - 9.4 1000.0 17.6
18/04:48pm WNW 16 26 - - - - 4 Partly cloudy - 8.9 1000.0 17.6
18/04:30pm WNW 15 21 - - - - 6 Partly cloudy - 10.0 999.7 16.4
18/04:24pm WNW 16 24 - - - - 5 Partly cloudy - 9.9 999.6 16.2
18/04:00pm WNW 15 21 - - - - 10 Partly cloudy - 10.8 999.4 16.2
18/03:30pm WNW 15 21 - - - - 10 Partly cloudy - 10.6 998.8 16.2
18/03:22pm WNW 17 27 - - - - 10 Partly cloudy - 10.7 998.5 16.2
18/03:00pm WNW 21 29 - - - - 10 Cloudy - 11.2 998.1 16.2
18/02:32pm WNW 23 35 - - - - 10 Partly cloudy - 11.6 997.1 16.2
18/02:30pm WNW 25 36 - - - - 10 Partly cloudy - 11.4 997.1 16.2
18/02:28pm WNW 26 36 - - - - 10 Partly cloudy - 11.4 997.0 16.2
18/02:00pm NW 26 40 - - - - 10 Partly cloudy - 11.8 995.6 16.2
18/01:58pm NW 25 40 - - - - 10 Partly cloudy - 11.8 995.5 16.2
18/01:30pm NNW 25 40 - - - - 6 Partly cloudy - 11.4 994.9 16.0
18/01:22pm NNW 26 36 - - - - 4 Partly cloudy - 11.5 994.9 15.8
18/01:18pm NNW 27 36 - - - - 5 Partly cloudy - 11.7 995.0 15.6
18/01:00pm NNW 32 45 - - - - 9 Partly cloudy - 11.7 995.0 15.4
18/12:55pm NNW 29 45 - - - - 8 Partly cloudy - 11.5 994.6 15.4
18/12:38pm NNW 24 34 - - - - 10 Partly cloudy - 11.1 994.8 15.2
18/12:37pm NNW 25 34 - - - - 10 Partly cloudy - 11.1 994.8 15.2
18/12:30pm NNW 22 34 - - - - 8 Partly cloudy - 10.7 994.8 15.2
18/12:04pm NW 29 44 - - - - 3 Partly cloudy - 11.2 995.1 14.8
18/12:00pm NW 29 44 - - - - 3 Cloudy Showers 11.3 995.0 14.2
18/11:51am NNW 23 40 - - - - 6 Partly cloudy - 12.6 995.1 13.6
18/11:40am NNW 24 37 - - - - 5 Partly cloudy - 12.7 995.1 13.4
18/11:30am NNW 23 33 - - - - 8 Partly cloudy - 12.7 995.3 13.4
18/11:27am NNW 23 33 - - - - 8 Partly cloudy - 12.8 995.3 13.4
18/11:24am NNW 23 30 - - - - 9 Partly cloudy - 12.9 995.4 13.4
18/11:00am NNW 27 41 - - - - 0.9 Partly cloudy - 11.2 995.6 11.0
18/10:56am NNW 26 41 - - - - 2 Partly cloudy - 10.9 995.6 8.2
18/10:30am NNW 17 31 - - - - 3 Partly cloudy - 11.8 995.8 3.2
18/10:14am NNW 19 29 - - - - 5 Partly cloudy - 12.0 995.7 1.2
18/10:00am NNW 22 34 - - - - 10 Cloudy - 12.6 995.9 0.2
18/09:30am N 23 34 - - - - 10 Cloudy - 12.3 996.2 0.0
18/09:18am N 19 30 - - - - 10 Partly cloudy - 12.2 996.5 0.0
18/09:02am N 18 29 - - - - 10 Partly cloudy - 11.8 996.8 0.0
18/09:00am N 18 24 - - - - 10 Cloudy Showers 11.8 996.8 13.6
18/08:58am N 17 24 - - - - 10 Partly cloudy - 11.7 996.8 13.6
18/08:30am N 15 21 - - - - 10 Partly cloudy - 11.7 997.2 13.4
18/08:00am N 13 17 - - - - 10 Partly cloudy - 11.5 997.5 13.4
18/07:30am N 15 21 - - - - 10 Partly cloudy - 11.6 997.9 13.2
18/07:00am N 14 23 - - - - 10 Cloudy - 11.4 998.3 13.2
18/06:48am N 13 20 - - - - 10 Partly cloudy - 11.4 998.6 13.2
18/06:30am N 17 26 - - - - 5 Partly cloudy - 11.4 999.1 13.0
18/06:29am N 17 26 - - - - 5 Partly cloudy - 11.4 999.1 13.0
18/06:21am N 16 26 - - - - 6 Partly cloudy - 11.3 999.1 13.0
18/06:08am N 18 23 - - - - 9 Partly cloudy - 11.4 999.2 12.6
18/06:05am NNW 18 26 - - - - 8 Partly cloudy - 11.4 999.2 12.6
18/06:00am NNW 20 31 - - - - 6 Cloudy Rain 11.3 999.3 12.6
18/05:34am NNW 19 29 - - - - 5 Partly cloudy - 11.5 999.8 12.0
18/05:30am N 18 26 - - - - 5 Partly cloudy - 11.5 999.9 12.0
18/05:26am N 18 27 - - - - 7 Partly cloudy - 11.4 1000.0 11.8
18/05:11am N 17 22 - - - - 9 Partly cloudy - 11.4 1000.0 11.4
18/05:10am N 17 22 - - - - 9 Partly cloudy - 11.4 1000.0 11.4
18/05:00am N 18 25 - - - - 5 Partly cloudy - 11.4 1000.2 11.2
18/04:47am N 18 26 - - - - 4 Partly cloudy - 11.5 1000.3 11.0
18/04:40am N 17 25 - - - - 5 Cloudy - 11.4 1000.4 10.8
18/04:37am N 17 25 - - - - 8 Cloudy - 11.5 1000.4 10.8
18/04:30am N 16 22 - - - - 10 Cloudy - 11.4 1000.3 10.6
18/04:13am N 12 16 - - - - 7 Cloudy - 11.1 1000.2 10.4
18/04:00am N 11 16 - - - - 5 Partly cloudy - 11.1 1000.9 10.4
18/03:57am N 12 16 - - - - 5 Partly cloudy - 11.1 1000.9 10.4
18/03:41am N 12 16 - - - - 7 Partly cloudy - 11.1 1000.9 10.2
18/03:30am N 11 15 - - - - 8 Partly cloudy - 11.1 1000.8 10.0
18/03:00am N 13 21 - - - - 10 Mostly cloudy Showers 11.3 1001.1 9.4
18/02:30am N 10 15 - - - - 10 Partly cloudy - 11.0 1001.9 9.0
18/02:00am N 15 23 - - - - 10 Partly cloudy - 11.2 1001.5 9.0
18/01:32am N 17 27 - - - - 10 Partly cloudy - 11.1 1002.7 8.6
18/01:30am N 17 24 - - - - 10 Partly cloudy - 11.1 1002.7 8.6
18/01:18am N 16 26 - - - - 10 Partly cloudy - 11.0 1002.9 8.4
18/01:00am N 14 21 - - - - 10 Partly cloudy - 10.9 1003.3 8.0
18/12:30am N 19 28 - - - - 10 Partly cloudy - 11.0 1004.0 7.4
18/12:00am N 19 29 - - - - 10 Cloudy Rain 10.8 1004.4 6.6
 
Date/Time
EST
Wind Sea
Height
m
Swell Vis
km
Cloud Weather Temp
°C
Press
MSL
hPa
Rain since
9am
mm
Dir  Spd
kts
Gust
kts
Height
m
Period
s
Dir
17/11:30pm N 18 28 - - - - 10 Cloudy - 10.8 1004.8 5.6
17/11:18pm N 17 27 - - - - 10 Cloudy - 10.7 1004.9 5.2
17/11:00pm N 16 23 - - - - 10 Partly cloudy - 10.7 1005.1 4.6
17/10:35pm N 18 29 - - - - 10 Cloudy - 11.0 1005.3 4.0
17/10:30pm N 17 26 - - - - 10 Cloudy - 10.8 1005.4 3.8
17/10:26pm N 16 26 - - - - 10 Cloudy - 10.9 1005.4 3.6
17/10:00pm N 15 21 - - - - 10 Cloudy - 10.8 1006.0 3.4
17/09:30pm N 14 21 - - - - 10 Partly cloudy - 10.7 1006.2 2.6
17/09:00pm N 15 24 - - - - 10 Cloudy Showers 10.7 1006.7 1.8
17/08:30pm N 15 24 - - - - 10 Cloudy - 10.9 1006.8 1.6
17/08:00pm N 15 22 - - - - 10 Partly cloudy - 10.5 1007.1 1.6
17/07:30pm N 15 23 - - - - 10 Partly cloudy - 10.8 1007.0 1.0
17/07:00pm N 11 17 - - - - 10 Partly cloudy - 10.6 1007.2 0.8
17/06:30pm N 13 19 - - - - 10 Partly cloudy - 10.9 1007.0 0.4
17/06:00pm N 10 15 - - - - 10 Cloudy Showers 10.9 1007.8 0.2
17/05:30pm N 12 18 - - - - 10 Partly cloudy - 11.5 1008.1 0.0
17/05:00pm N 17 26 - - - - 10 Cloudy - 12.6 1008.4 0.0
17/04:32pm N 18 29 - - - - 10 Cloudy - 12.9 1008.6 0.0
17/04:30pm N 18 27 - - - - 10 Partly cloudy - 12.9 1008.6 0.0
17/04:16pm N 15 25 - - - - 10 Cloudy - 13.4 1008.5 0.0
17/04:00pm N 13 20 - - - - 10 Cloudy - 13.7 1008.4 0.0
17/03:50pm N 15 25 - - - - 10 Partly cloudy - 13.9 1008.4 0.0
17/03:30pm N 16 24 - - - - 10 Partly cloudy - 14.1 1008.6 0.0
17/03:00pm N 12 17 - - - - 10 Cloudy - 14.4 1008.9 0.0
17/02:30pm N 10 18 - - - - 10 Cloudy - 15.0 1009.1 0.0
17/02:00pm NNW 9 12 - - - - 10 Cloudy - 13.8 1009.6 0.0
17/01:30pm NNW 11 16 - - - - 10 - - 14.9 1010.2 0.0
17/01:00pm N 7 9 - - - - 10 - - 13.4 1010.7 0.0
17/12:30pm NNW 14 17 - - - - 10 - - 12.8 1012.0 0.0
17/12:00pm NNW 9 15 - - - - 10 Cloudy - 13.2 1012.6 0.0
17/11:30am NNE 7 9 - - - - 10 - - 12.1 1013.4 0.0
17/11:00am N 7 10 - - - - 10 - - 11.7 1014.3 0.0
17/10:30am N 11 14 - - - - 10 - - 10.6 1015.0 0.0
17/10:00am N 8 11 - - - - 10 - - 9.8 1015.5 0.0
17/09:30am N 11 15 - - - - 10 - - 9.1 1015.4 0.0
17/09:00am NNE 7 9 - - - - 10 Mostly cloudy - 7.3 1015.7 0.6
17/08:30am NNE 6 9 - - - - 10 - - 7.0 1015.6 0.6
17/08:04am NNE 7 8 - - - - 10 Partly cloudy - 6.8 1015.8 0.6
17/08:00am NNE 6 8 - - - - 10 Partly cloudy - 6.7 1015.7 0.6
17/07:30am NNE 7 8 - - - - 10 Cloudy - 6.7 1015.8 0.6
17/07:00am NNE 6 8 - - - - 10 Cloudy - 6.6 1015.8 0.6
17/06:59am NNE 6 8 - - - - 10 Cloudy - 6.6 1015.8 0.6
17/06:44am NNE 5 7 - - - - 5 Partly cloudy - 6.6 1015.9 0.6
17/06:36am NNE 6 8 - - - - 10 Partly cloudy - 6.6 1016.0 0.6
17/06:30am NNE 6 8 - - - - 10 Partly cloudy - 6.7 1016.1 0.6
17/06:00am NNE 5 8 - - - - 2 Mostly cloudy Rain 6.7 1015.8 0.6
17/05:30am NNE 5 8 - - - - 4 Cloudy - 6.3 1016.0 0.4
17/05:20am NNE 6 8 - - - - 5 Cloudy - 6.3 1016.0 0.4
17/05:00am NNE 7 8 - - - - 10 Cloudy - 6.2 1015.8 0.4
17/04:30am NE 3 5 - - - - 10 Cloudy - 5.7 1015.9 0.4
17/04:11am NE 4 4 - - - - 10 Partly cloudy - 5.4 1015.6 0.4
17/04:00am NE 4 5 - - - - 10 Partly cloudy - 5.5 1015.7 0.4
17/03:50am NE 4 5 - - - - 10 Partly cloudy - 5.8 1015.9 0.4
17/03:30am NE 4 5 - - - - 10 Partly cloudy - 6.1 1016.0 0.4
17/03:00am N 5 6 - - - - 10 Cloudy - 6.6 1015.9 0.4
17/02:30am NNE 5 7 - - - - 10 Partly cloudy - 6.4 1015.4 0.4
17/02:13am NNE 4 5 - - - - 10 Partly cloudy - 6.4 1015.8 0.4
17/02:00am NNE 2 4 - - - - 10 Cloudy - 6.0 1015.9 0.4
17/01:40am NNE 5 6 - - - - 10 Partly cloudy - 6.4 1015.7 0.4
17/01:30am NE 5 6 - - - - 5 Partly cloudy - 6.3 1015.8 0.4
17/01:25am NE 4 5 - - - - 2 Partly cloudy - 5.9 1015.9 0.4
17/01:11am NE 3 4 - - - - 1 Partly cloudy - 6.1 1016.0 0.4
17/01:00am NE 3 4 - - - - 0.2 Partly cloudy - 5.5 1015.9 0.4
17/12:47am NE 1 4 - - - - 0.3 Partly cloudy - 6.2 1015.9 0.4
17/12:30am CALM 0 0 - - - - 0.5 Partly cloudy - 5.6 1015.8 0.4
17/12:15am NE 3 4 - - - - 0.9 Partly cloudy - 6.9 1015.7 0.4
17/12:13am NE 3 4 - - - - 1 Partly cloudy - 7.0 1015.7 0.4
17/12:02am NE 3 4 - - - - 5 Partly cloudy - 7.2 1015.8 0.4
17/12:00am NE 3 4 - - - - 10 Partly cloudy - 7.3 1015.8 0.4
 
Date/Time
EST
Wind Sea
Height
m
Swell Vis
km
Cloud Weather Temp
°C
Press
MSL
hPa
Rain since
9am
mm
Dir  Spd
kts
Gust
kts
Height
m
Period
s
Dir
16/11:36pm NE 1 5 - - - - 10 Cloudy - 7.5 1016.3 0.4
16/11:30pm CALM 0 0 - - - - 8 Cloudy - 6.9 1016.4 0.4
16/11:20pm CALM 0 2 - - - - 3 Partly cloudy - 6.5 1016.6 0.4
16/11:15pm ESE 2 4 - - - - 5 Partly cloudy - 6.7 1016.6 0.4
16/11:00pm ESE 4 4 - - - - 10 Partly cloudy - 7.6 1016.7 0.4
16/10:35pm SSE 5 7 - - - - 10 Partly cloudy - 7.9 1016.7 0.4
16/10:30pm SSE 5 7 - - - - 10 Partly cloudy - 8.0 1016.7 0.4
16/10:00pm S 6 8 - - - - 10 Partly cloudy - 8.5 1016.7 0.2
16/09:34pm SSW 6 7 - - - - 6 Partly cloudy - 8.9 1016.7 0.2
16/09:30pm SSW 5 7 - - - - 7 Cloudy - 9.0 1016.7 0.2
16/09:04pm SSW 5 7 - - - - 5 Partly cloudy - 9.1 1016.5 0.2
16/09:00pm SSW 5 7 - - - - 8 Cloudy - 9.2 1016.4 0.2
16/08:30pm SSW 6 9 - - - - 10 Partly cloudy - 9.3 1016.2 0.2
16/08:20pm SSW 5 7 - - - - 10 Partly cloudy - 9.3 1016.2 0.2
16/08:02pm SSW 8 12 - - - - 5 Partly cloudy - 9.5 1016.1 0.2
16/08:00pm SSW 7 12 - - - - 7 Partly cloudy - 9.5 1016.2 0.2
16/07:30pm SSW 8 10 - - - - 10 Partly cloudy - 9.6 1016.3 0.2
16/07:00pm SSW 9 11 - - - - 10 Partly cloudy - 9.7 1016.0 0.2
16/06:30pm SSW 8 11 - - - - 10 Partly cloudy - 9.7 1015.8 0.2
16/06:00pm SW 9 12 - - - - 10 Cloudy - 9.5 1014.8 0.2
16/05:30pm SSW 9 11 - - - - 10 Cloudy - 10.1 1013.4 0.2
16/05:00pm SSW 9 12 - - - - 10 Cloudy - 10.7 1012.7 0.2
16/04:30pm S 10 14 - - - - 10 Cloudy - 10.9 1012.1 0.2
16/04:00pm SSW 12 17 - - - - 10 Partly cloudy - 11.3 1012.2 0.2
16/03:30pm S 11 17 - - - - 10 Partly cloudy - 11.6 1012.0 0.2
16/03:00pm SSW 13 18 - - - - 10 Cloudy - 12.0 1011.8 0.2
16/02:30pm SSW 15 21 - - - - 10 Partly cloudy - 11.6 1011.7 0.2
16/02:00pm SSW 14 21 - - - - 10 Partly cloudy - 12.3 1011.2 0.2
16/01:30pm SSW 15 21 - - - - 10 Cloudy - 12.5 1010.8 0.2
16/01:00pm SSW 15 19 - - - - 10 Cloudy - 12.2 1010.7 0.2
16/12:30pm SSW 16 21 - - - - 10 Partly cloudy - 12.1 1010.6 0.2
16/12:00pm SSW 14 19 - - - - 10 Mostly cloudy Recent precip. 12.1 1010.5 0.2
16/11:30am SSW 12 20 - - - - 10 Partly cloudy - 13.2 1010.1 0.2
16/11:00am S 12 16 - - - - 7 Partly cloudy - 11.5 1009.9 0.2
16/10:51am SSW 13 17 - - - - 10 Partly cloudy - 11.5 1009.7 0.2
16/10:30am SSW 13 17 - - - - 10 Partly cloudy - 11.6 1009.3 0.2
16/10:22am SSW 12 15 - - - - 10 Partly cloudy - 11.8 1009.3 0.2
16/10:09am S 7 15 - - - - 10 Partly cloudy - 11.6 1009.2 0.2
16/10:01am SSE 5 8 - - - - 10 Cloudy - 11.7 1009.1 0.2
16/10:00am SSE 5 8 - - - - 10 Cloudy - 11.7 1009.0 0.2
16/09:34am SSE 6 8 - - - - 10 Cloudy - 11.5 1008.7 0.0
16/09:30am SSE 6 8 - - - - 10 Cloudy - 11.5 1008.6 0.0
16/09:26am SSE 7 10 - - - - 10 Partly cloudy - 11.4 1008.5 0.0
16/09:11am SSE 7 9 - - - - 10 Partly cloudy - 11.6 1008.3 0.0
16/09:00am S 8 11 - - - - 10 Mostly cloudy Recent precip. 10.9 1008.1 2.6
16/08:44am S 11 16 - - - - 10 Partly cloudy - 10.9 1008.0 2.6
16/08:30am S 10 18 - - - - 10 Partly cloudy - 10.8 1007.7 2.6

Other formats

Comma delimited format used in spreadsheet applications
http://www.bom.gov.au/fwo/IDT60701/IDT60701.94956.axf

JavaScript Object Notation format (JSON) in row-major order
http://www.bom.gov.au/fwo/IDT60701/IDT60701.94956.json

Data quality

Most of these data are generated automatically and are frequently updated. Quality checks on data are not normally performed. It is possible for incorrect values to appear. Refer to information at About Latest Weather Observations and please check the disclaimer before using these data.